Time;durP1;ratioP1;P1;durP2;ratioP2;P2;SDS_P1;SDS_P2;PMS_P1;PMS_P2;Temp;Humidity;BMP_temperature;BMP_pressure;BME280_temperature;BME280_humidity;BME280_pressure;Samples;Min_cycle;Max_cycle;Signal;HPM_P1;HPM_P2
2023/02/11 00:00:45;;;;;;;;;;;1.10;99.90;;;;;;5055189;28;19920;-54
2023/02/11 00:03:12;;;;;;;;;;;1.10;99.90;;;;;;5055152;28;20301;-53
2023/02/11 00:05:39;;;;;;;;;;;1.00;99.90;;;;;;5054784;28;20019;-54
2023/02/11 00:08:05;;;;;;;;;;;1.00;99.90;;;;;;5054189;28;20201;-54
2023/02/11 00:10:32;;;;;;;;;;;1.10;99.90;;;;;;5063385;28;19924;-52
2023/02/11 00:12:59;;;;;;;;;;;1.10;99.90;;;;;;5054747;28;20015;-53
2023/02/11 00:15:28;;;;;;;;;;;1.10;99.90;;;;;;5055163;28;19925;-54
2023/02/11 00:17:54;;;;;;;;;;;1.20;99.90;;;;;;5065602;28;19958;-54
2023/02/11 00:20:21;;;;;;;;;;;1.10;99.90;;;;;;5070340;28;19967;-55
2023/02/11 00:22:48;;;;;;;;;;;1.10;99.90;;;;;;5074055;28;19921;-55
2023/02/11 00:25:15;;;;;;;;;;;1.10;99.90;;;;;;5075433;28;19921;-55
2023/02/11 00:27:42;;;;;;;;;;;1.00;99.90;;;;;;5075935;28;19920;-54
2023/02/11 00:30:11;;;;;;;;;;;1.10;99.90;;;;;;5069672;28;20034;-56
2023/02/11 00:32:41;;;;;;;;;;;1.00;99.90;;;;;;5055038;28;20019;-54
2023/02/11 00:35:08;;;;;;;;;;;1.00;99.90;;;;;;5055355;28;20357;-54
2023/02/11 00:37:35;;;;;;;;;;;1.00;99.90;;;;;;5055961;28;20328;-56
2023/02/11 00:40:03;;;;;;;;;;;1.00;99.90;;;;;;5055124;28;19982;-51
2023/02/11 00:42:30;;;;;;;;;;;0.90;99.90;;;;;;5055944;28;19920;-54
2023/02/11 00:44:57;;;;;;;;;;;0.90;99.90;;;;;;5056329;28;19924;-57
2023/02/11 00:47:23;;;;;;;;;;;0.90;99.90;;;;;;5058997;28;19955;-53
2023/02/11 00:49:52;;;;;;;;;;;0.80;99.90;;;;;;5076081;28;20011;-57
2023/02/11 00:52:19;;;;;;;;;;;0.80;99.90;;;;;;5076106;28;19934;-54
2023/02/11 00:54:45;;;;;;;;;;;0.70;99.90;;;;;;5075831;28;20362;-54
2023/02/11 00:57:12;;;;;;;;;;;0.70;99.90;;;;;;5073591;28;20015;-54
2023/02/11 00:59:39;;;;;;;;;;;0.70;99.90;;;;;;5076349;28;20349;-55
2023/02/11 01:02:06;;;;;;;;;;;0.70;99.90;;;;;;5075888;28;19955;-54
2023/02/11 01:04:33;;;;;;;;;;;0.70;99.90;;;;;;5079750;28;19920;-51
2023/02/11 01:07:02;;;;;;;;;;;0.70;99.90;;;;;;5078854;28;19921;-52
2023/02/11 01:09:28;;;;;;;;;;;0.70;99.90;;;;;;5080022;28;20211;-51
2023/02/11 01:11:55;;;;;;;;;;;0.70;99.90;;;;;;5080229;28;20010;-54
2023/02/11 01:14:22;;;;;;;;;;;0.70;99.90;;;;;;5077034;28;20582;-49
2023/02/11 01:16:49;;;;;;;;;;;0.70;99.90;;;;;;5074930;28;19973;-54
2023/02/11 01:19:16;;;;;;;;;;;0.70;99.90;;;;;;5079542;28;20046;-55
2023/02/11 01:21:43;;;;;;;;;;;0.70;99.90;;;;;;5079382;28;19926;-53
2023/02/11 01:24:11;;;;;;;;;;;0.70;99.90;;;;;;5079442;28;19951;-53
2023/02/11 01:26:38;;;;;;;;;;;0.70;99.90;;;;;;5073788;28;20217;-53
2023/02/11 01:29:05;;;;;;;;;;;0.70;99.90;;;;;;5079985;28;20028;-51
2023/02/11 01:31:32;;;;;;;;;;;0.70;99.90;;;;;;5079238;28;20010;-52
2023/02/11 01:33:59;;;;;;;;;;;0.60;99.90;;;;;;5078904;28;19999;-54
2023/02/11 01:36:26;;;;;;;;;;;0.60;99.90;;;;;;5074573;28;19920;-54
2023/02/11 01:38:53;;;;;;;;;;;0.70;99.90;;;;;;5079717;28;20359;-54
2023/02/11 01:41:21;;;;;;;;;;;0.60;99.90;;;;;;5079743;28;19955;-56
2023/02/11 01:43:49;;;;;;;;;;;0.60;99.90;;;;;;5078842;28;19924;-54
2023/02/11 01:46:33;;;;;;;;;;;0.60;99.90;;;;;;5076307;28;19920;-50
2023/02/11 01:49:02;;;;;;;;;;;0.70;99.90;;;;;;5078763;28;20121;-57
2023/02/11 01:51:32;;;;;;;;;;;0.70;99.90;;;;;;5078905;28;20402;-52
2023/02/11 01:59:34;;;;;;;;;;;0.90;99.90;;;;;;5079009;28;19926;-54
2023/02/11 02:02:05;;;;;;;;;;;0.90;99.90;;;;;;5079033;28;19963;-53
2023/02/11 02:04:35;;;;;;;;;;;0.90;99.90;;;;;;5077724;28;20027;-54
2023/02/11 02:07:06;;;;;;;;;;;0.90;99.90;;;;;;5077607;28;19927;-52
2023/02/11 02:09:36;;;;;;;;;;;0.90;99.90;;;;;;5078682;28;19924;-49
2023/02/11 02:12:05;;;;;;;;;;;1.00;99.90;;;;;;5078003;28;19931;-51
2023/02/11 02:14:32;;;;;;;;;;;1.00;99.90;;;;;;5077055;28;20106;-53
2023/02/11 02:16:59;;;;;;;;;;;1.10;99.90;;;;;;5077839;28;19927;-53
2023/02/11 02:19:56;;;;;;;;;;;1.00;99.90;;;;;;5079161;28;19977;-59
2023/02/11 02:22:39;;;;;;;;;;;1.00;99.90;;;;;;4977224;28;20330;-59
2023/02/11 02:25:19;;;;;;;;;;;0.90;99.90;;;;;;5061474;28;19924;-59
2023/02/11 02:27:50;;;;;;;;;;;0.90;99.90;;;;;;5078625;28;19925;-59
2023/02/11 02:30:25;;;;;;;;;;;0.90;99.90;;;;;;5077212;28;19926;-59
2023/02/11 02:33:00;;;;;;;;;;;0.90;99.90;;;;;;5073923;28;20011;-60
2023/02/11 02:35:30;;;;;;;;;;;0.90;99.90;;;;;;5078477;28;19927;-60
2023/02/11 02:37:59;;;;;;;;;;;0.90;99.90;;;;;;5078499;28;19929;-59
2023/02/11 02:40:28;;;;;;;;;;;0.80;99.90;;;;;;5067167;28;19950;-52
2023/02/11 02:42:56;;;;;;;;;;;0.70;99.90;;;;;;5057880;28;19921;-53
2023/02/11 02:45:23;;;;;;;;;;;0.70;99.90;;;;;;5058208;28;20028;-52
2023/02/11 02:47:50;;;;;;;;;;;0.70;99.90;;;;;;5058462;28;19921;-53
2023/02/11 02:50:21;;;;;;;;;;;0.70;99.90;;;;;;5076489;28;19975;-52
2023/02/11 02:52:53;;;;;;;;;;;0.70;99.90;;;;;;5078560;28;20307;-53
2023/02/11 02:55:25;;;;;;;;;;;0.70;99.90;;;;;;5077891;28;19955;-55
2023/02/11 02:58:09;;;;;;;;;;;0.70;99.90;;;;;;5077982;28;19926;-51
2023/02/11 03:00:42;;;;;;;;;;;0.70;99.90;;;;;;5076924;28;20023;-53
2023/02/11 03:03:25;;;;;;;;;;;0.60;99.90;;;;;;5078408;28;19926;-55
2023/02/11 03:05:56;;;;;;;;;;;0.60;99.90;;;;;;5077282;28;20304;-54
2023/02/11 03:08:27;;;;;;;;;;;0.60;99.90;;;;;;5077793;28;19928;-52
2023/02/11 03:10:55;;;;;;;;;;;0.60;99.90;;;;;;5075510;28;19920;-53
2023/02/11 03:13:24;;;;;;;;;;;0.60;99.90;;;;;;5077967;28;19927;-54
2023/02/11 03:15:54;;;;;;;;;;;0.70;99.90;;;;;;5078046;28;19926;-55
2023/02/11 03:18:22;;;;;;;;;;;0.80;99.90;;;;;;5077082;28;19928;-53
2023/02/11 03:20:50;;;;;;;;;;;0.80;99.90;;;;;;5076911;28;19986;-54
2023/02/11 03:23:22;;;;;;;;;;;0.90;99.90;;;;;;5077677;28;20015;-55
2023/02/11 03:25:51;;;;;;;;;;;0.90;99.90;;;;;;5074537;28;19959;-53
2023/02/11 03:28:20;;;;;;;;;;;0.80;99.90;;;;;;5077441;28;20243;-54
2023/02/11 03:30:49;;;;;;;;;;;0.80;99.90;;;;;;5077498;28;20312;-50
2023/02/11 03:33:20;;;;;;;;;;;0.70;99.90;;;;;;5075545;28;19920;-55
2023/02/11 03:35:50;;;;;;;;;;;0.70;99.90;;;;;;5074781;28;19920;-52
2023/02/11 03:38:22;;;;;;;;;;;0.70;99.90;;;;;;5077406;28;20011;-47
2023/02/11 03:40:50;;;;;;;;;;;0.70;99.90;;;;;;5077207;28;19928;-54
2023/02/11 03:43:18;;;;;;;;;;;0.70;99.90;;;;;;5076280;28;19927;-51
2023/02/11 03:45:47;;;;;;;;;;;0.70;99.90;;;;;;5075119;28;19943;-54
2023/02/11 03:48:16;;;;;;;;;;;0.70;99.90;;;;;;5073936;28;20007;-55
2023/02/11 03:50:44;;;;;;;;;;;0.80;99.90;;;;;;5075207;28;20389;-53
2023/02/11 03:53:11;;;;;;;;;;;0.90;99.90;;;;;;5075648;28;20296;-54
2023/02/11 03:55:40;;;;;;;;;;;1.00;99.90;;;;;;5074865;28;19927;-51
2023/02/11 03:58:07;;;;;;;;;;;1.00;99.90;;;;;;5076827;28;20011;-54
2023/02/11 04:00:35;;;;;;;;;;;1.00;99.90;;;;;;5075573;28;19921;-54
2023/02/11 04:03:02;;;;;;;;;;;1.00;99.90;;;;;;5076864;28;19952;-54
2023/02/11 04:05:29;;;;;;;;;;;1.10;99.90;;;;;;5061114;28;19927;-54
2023/02/11 04:07:56;;;;;;;;;;;1.00;99.90;;;;;;5074975;28;20023;-55
2023/02/11 04:10:23;;;;;;;;;;;1.00;99.90;;;;;;5076309;28;20014;-53
2023/02/11 04:12:51;;;;;;;;;;;0.90;99.90;;;;;;5076690;28;20010;-55
2023/02/11 04:15:18;;;;;;;;;;;0.90;99.90;;;;;;5073740;28;19927;-54
2023/02/11 04:17:45;;;;;;;;;;;0.90;99.90;;;;;;5071426;28;19927;-51
2023/02/11 04:20:12;;;;;;;;;;;1.00;99.90;;;;;;5075704;28;20014;-53
2023/02/11 04:22:40;;;;;;;;;;;1.10;99.90;;;;;;5076140;28;19920;-53
2023/02/11 04:25:07;;;;;;;;;;;1.10;99.90;;;;;;5075715;28;20323;-50
2023/02/11 04:27:34;;;;;;;;;;;1.20;99.90;;;;;;5073066;28;19929;-49
2023/02/11 04:30:07;;;;;;;;;;;1.10;99.90;;;;;;5076014;28;19927;-51
2023/02/11 04:32:34;;;;;;;;;;;1.20;99.90;;;;;;5076882;28;20347;-50
2023/02/11 04:35:01;;;;;;;;;;;1.20;99.90;;;;;;5076316;28;20303;-54
2023/02/11 04:37:28;;;;;;;;;;;1.10;99.90;;;;;;5075235;28;19928;-53
2023/02/11 04:39:55;;;;;;;;;;;1.00;99.90;;;;;;5076899;28;19926;-54
2023/02/11 04:42:22;;;;;;;;;;;1.10;99.90;;;;;;5076475;28;20007;-53
2023/02/11 04:44:49;;;;;;;;;;;1.20;99.90;;;;;;5074650;28;19955;-54
2023/02/11 04:47:17;;;;;;;;;;;1.20;99.90;;;;;;5074069;28;19926;-54
2023/02/11 04:49:44;;;;;;;;;;;1.30;99.90;;;;;;5076508;28;20324;-55
2023/02/11 04:52:11;;;;;;;;;;;1.40;99.90;;;;;;5076449;28;19924;-55
2023/02/11 04:54:38;;;;;;;;;;;1.50;99.90;;;;;;5075374;28;19924;-54
2023/02/11 04:57:05;;;;;;;;;;;1.60;99.90;;;;;;5075690;28;20328;-57
2023/02/11 04:59:32;;;;;;;;;;;1.70;99.90;;;;;;5073799;28;20243;-53
2023/02/11 05:01:59;;;;;;;;;;;1.70;99.90;;;;;;5076241;28;20007;-56
2023/02/11 05:04:27;;;;;;;;;;;1.60;99.90;;;;;;5076610;28;20027;-51
2023/02/11 05:06:54;;;;;;;;;;;1.50;99.90;;;;;;5074410;28;20026;-52
2023/02/11 05:09:21;;;;;;;;;;;1.60;99.90;;;;;;5075048;28;19924;-52
2023/02/11 05:11:48;;;;;;;;;;;1.70;99.90;;;;;;5074462;28;20371;-55
2023/02/11 05:14:15;;;;;;;;;;;1.60;99.90;;;;;;5073490;28;20046;-52
2023/02/11 05:16:42;;;;;;;;;;;1.60;99.90;;;;;;5074168;28;19921;-55
2023/02/11 05:19:09;;;;;;;;;;;1.60;99.90;;;;;;5076561;28;19931;-54
2023/02/11 05:21:37;;;;;;;;;;;1.70;99.90;;;;;;5076236;28;19927;-55
2023/02/11 05:24:04;;;;;;;;;;;1.80;99.90;;;;;;5075941;28;19920;-54
2023/02/11 05:26:32;;;;;;;;;;;1.80;99.90;;;;;;5074629;28;19927;-55
2023/02/11 05:28:59;;;;;;;;;;;1.80;99.90;;;;;;5073272;28;20303;-51
2023/02/11 05:31:26;;;;;;;;;;;1.70;99.90;;;;;;5074627;28;19942;-55
2023/02/11 05:33:52;;;;;;;;;;;1.60;99.90;;;;;;5074172;28;19921;-53
2023/02/11 05:36:19;;;;;;;;;;;1.70;99.90;;;;;;5071395;28;19920;-53
2023/02/11 05:38:49;;;;;;;;;;;1.70;99.90;;;;;;5075858;28;20007;-51
2023/02/11 05:41:16;;;;;;;;;;;1.50;99.90;;;;;;5076229;28;19921;-54
2023/02/11 05:43:43;;;;;;;;;;;1.50;99.90;;;;;;5075752;28;20015;-53
2023/02/11 05:46:10;;;;;;;;;;;1.40;99.90;;;;;;5073453;28;20015;-50
2023/02/11 05:48:37;;;;;;;;;;;1.40;99.90;;;;;;5074025;28;20015;-53
2023/02/11 05:51:04;;;;;;;;;;;1.50;99.90;;;;;;5078251;28;19920;-53
2023/02/11 05:53:31;;;;;;;;;;;1.50;99.90;;;;;;5077574;28;19942;-53
2023/02/11 05:56:01;;;;;;;;;;;1.50;99.90;;;;;;5077084;28;20296;-55
2023/02/11 05:58:28;;;;;;;;;;;1.50;99.90;;;;;;5077850;28;19955;-52
2023/02/11 06:00:55;;;;;;;;;;;1.50;99.90;;;;;;5077616;28;19920;-54
2023/02/11 06:03:22;;;;;;;;;;;1.40;99.90;;;;;;5069386;28;19920;-55
2023/02/11 06:05:49;;;;;;;;;;;1.40;99.90;;;;;;5077610;28;20375;-54
2023/02/11 06:08:16;;;;;;;;;;;1.40;99.90;;;;;;5078347;28;19963;-54
2023/02/11 06:10:44;;;;;;;;;;;1.30;99.90;;;;;;5078548;28;20008;-55
2023/02/11 06:13:13;;;;;;;;;;;1.30;99.90;;;;;;5076752;28;19958;-55
2023/02/11 06:15:40;;;;;;;;;;;1.30;99.90;;;;;;5078604;28;19927;-54
2023/02/11 06:18:07;;;;;;;;;;;1.20;99.90;;;;;;5078439;28;19962;-56
2023/02/11 06:20:34;;;;;;;;;;;1.10;99.90;;;;;;5078648;28;19998;-54
2023/02/11 06:23:01;;;;;;;;;;;1.10;99.90;;;;;;5076550;28;20011;-54
2023/02/11 06:25:28;;;;;;;;;;;1.10;99.90;;;;;;5077675;28;19920;-52
2023/02/11 06:27:55;;;;;;;;;;;1.10;99.90;;;;;;5077151;28;19921;-52
2023/02/11 06:30:23;;;;;;;;;;;1.10;99.90;;;;;;5072799;28;20278;-55
2023/02/11 06:32:50;;;;;;;;;;;1.20;99.90;;;;;;5074632;28;19970;-51
2023/02/11 06:35:17;;;;;;;;;;;1.20;99.90;;;;;;5056798;28;20012;-54
2023/02/11 06:37:44;;;;;;;;;;;1.30;99.90;;;;;;5058098;28;20372;-52
2023/02/11 06:40:11;;;;;;;;;;;1.30;99.90;;;;;;5057681;28;19921;-54
2023/02/11 06:42:38;;;;;;;;;;;1.40;99.90;;;;;;5063803;28;19966;-56
2023/02/11 06:45:08;;;;;;;;;;;1.40;99.90;;;;;;5077869;28;19931;-56
2023/02/11 06:47:36;;;;;;;;;;;1.40;99.90;;;;;;5076881;28;19927;-56
2023/02/11 06:50:03;;;;;;;;;;;1.50;99.90;;;;;;5076386;28;20321;-56
2023/02/11 06:52:30;;;;;;;;;;;1.40;99.90;;;;;;5059448;28;20011;-57
2023/02/11 06:54:57;;;;;;;;;;;1.50;99.90;;;;;;5055347;28;19921;-57
2023/02/11 06:57:24;;;;;;;;;;;1.50;99.90;;;;;;5057921;28;19965;-56
2023/02/11 06:59:51;;;;;;;;;;;1.50;99.90;;;;;;5070749;28;19924;-56
2023/02/11 07:02:18;;;;;;;;;;;1.60;99.90;;;;;;5074448;28;20280;-56
2023/02/11 07:04:46;;;;;;;;;;;1.90;99.90;;;;;;5068118;28;19924;-48
2023/02/11 07:07:13;;;;;;;;;;;1.80;99.90;;;;;;5075113;28;20010;-47
2023/02/11 07:09:40;;;;;;;;;;;1.70;99.90;;;;;;5066375;28;19942;-47
2023/02/11 07:12:09;;;;;;;;;;;1.70;99.90;;;;;;5072949;28;19927;-51
2023/02/11 07:14:36;;;;;;;;;;;1.70;99.90;;;;;;5055829;28;20312;-58
2023/02/11 07:17:03;;;;;;;;;;;1.70;99.90;;;;;;5075055;28;20006;-62
2023/02/11 07:19:30;;;;;;;;;;;1.70;99.90;;;;;;5076793;28;19924;-59
2023/02/11 07:21:59;;;;;;;;;;;1.80;99.90;;;;;;5076845;28;20231;-60
2023/02/11 07:24:25;;;;;;;;;;;2.30;99.90;;;;;;5076009;28;20308;-59
2023/02/11 07:26:53;;;;;;;;;;;2.50;99.90;;;;;;5068923;28;19926;-60
2023/02/11 07:29:20;;;;;;;;;;;2.40;99.90;;;;;;5056987;28;20284;-60
2023/02/11 07:31:47;;;;;;;;;;;2.40;99.90;;;;;;5072416;28;19955;-60
2023/02/11 07:34:14;;;;;;;;;;;2.30;99.90;;;;;;5060725;28;19921;-58
2023/02/11 07:36:42;;;;;;;;;;;2.20;99.90;;;;;;5070607;28;19928;-59
2023/02/11 07:39:10;;;;;;;;;;;2.30;99.90;;;;;;5067226;28;20312;-59
2023/02/11 07:41:38;;;;;;;;;;;2.40;99.90;;;;;;5077526;28;19920;-60
2023/02/11 07:44:06;;;;;;;;;;;2.60;99.90;;;;;;5077835;28;20320;-58
2023/02/11 07:46:34;;;;;;;;;;;2.70;99.90;;;;;;5076910;28;20372;-60
2023/02/11 07:49:02;;;;;;;;;;;2.80;99.90;;;;;;5077245;28;19950;-59
2023/02/11 07:51:30;;;;;;;;;;;3.10;99.90;;;;;;5077006;28;19920;-59
2023/02/11 07:53:58;;;;;;;;;;;3.60;99.90;;;;;;5076990;28;19926;-59
2023/02/11 07:56:28;;;;;;;;;;;3.70;99.90;;;;;;5061101;28;19929;-59
2023/02/11 07:58:55;;;;;;;;;;;3.50;99.90;;;;;;5069107;28;19921;-59
2023/02/11 08:01:25;;;;;;;;;;;3.30;99.90;;;;;;5057410;28;19970;-59
2023/02/11 08:03:53;;;;;;;;;;;3.10;99.90;;;;;;5056632;28;19924;-59
2023/02/11 08:06:23;;;;;;;;;;;2.90;99.90;;;;;;5056998;28;19966;-58
2023/02/11 08:08:50;;;;;;;;;;;2.80;99.90;;;;;;5057310;28;19924;-58
2023/02/11 08:11:19;;;;;;;;;;;2.70;99.90;;;;;;5056408;28;20251;-58
2023/02/11 08:13:47;;;;;;;;;;;2.70;99.90;;;;;;5071735;28;19931;-60
2023/02/11 08:16:18;;;;;;;;;;;2.80;99.90;;;;;;5076171;28;19924;-58
2023/02/11 08:18:45;;;;;;;;;;;2.80;99.90;;;;;;5076631;28;20232;-57
2023/02/11 08:21:13;;;;;;;;;;;2.90;99.90;;;;;;5076387;28;19924;-58
2023/02/11 08:23:41;;;;;;;;;;;3.00;99.90;;;;;;5076690;28;19921;-58
2023/02/11 08:26:09;;;;;;;;;;;3.00;99.90;;;;;;5076416;28;20216;-59
2023/02/11 08:28:37;;;;;;;;;;;3.10;99.90;;;;;;5076738;28;20201;-58
2023/02/11 08:31:09;;;;;;;;;;;3.10;99.90;;;;;;5076804;28;19927;-57
2023/02/11 08:33:36;;;;;;;;;;;3.20;99.90;;;;;;5061715;28;20321;-58
2023/02/11 08:36:08;;;;;;;;;;;3.50;99.90;;;;;;5056058;28;20198;-57
2023/02/11 08:38:34;;;;;;;;;;;3.50;99.90;;;;;;5056728;28;19943;-58
2023/02/11 08:41:01;;;;;;;;;;;3.50;99.90;;;;;;5055380;28;19927;-58
2023/02/11 08:43:28;;;;;;;;;;;3.80;99.90;;;;;;5055225;28;19921;-58
2023/02/11 08:45:55;;;;;;;;;;;4.00;99.90;;;;;;5055370;28;19921;-58
2023/02/11 08:48:23;;;;;;;;;;;4.10;99.90;;;;;;5059735;28;19979;-60
2023/02/11 08:50:50;;;;;;;;;;;4.30;99.90;;;;;;5065865;28;19921;-56
2023/02/11 08:53:17;;;;;;;;;;;4.30;99.90;;;;;;5065513;28;20358;-57
2023/02/11 08:55:48;;;;;;;;;;;4.10;99.90;;;;;;5073457;28;20238;-55
2023/02/11 08:58:15;;;;;;;;;;;4.00;99.90;;;;;;5064312;28;20326;-56
2023/02/11 09:00:44;;;;;;;;;;;3.90;99.90;;;;;;5069653;28;19952;-55
2023/02/11 09:03:11;;;;;;;;;;;4.00;99.90;;;;;;5068821;28;19927;-56
2023/02/11 09:05:42;;;;;;;;;;;3.90;99.90;;;;;;5071357;28;19951;-57
2023/02/11 09:08:09;;;;;;;;;;;4.00;99.90;;;;;;5064774;28;19928;-56
2023/02/11 09:10:36;;;;;;;;;;;3.90;99.90;;;;;;5072383;28;19920;-57
2023/02/11 09:13:03;;;;;;;;;;;4.00;99.90;;;;;;5065297;28;20388;-55
2023/02/11 09:15:30;;;;;;;;;;;4.10;99.90;;;;;;5071782;28;20288;-55
2023/02/11 09:17:57;;;;;;;;;;;4.20;99.90;;;;;;5056253;28;19929;-56
2023/02/11 09:20:25;;;;;;;;;;;4.50;99.90;;;;;;5073135;28;19966;-55
2023/02/11 09:22:53;;;;;;;;;;;4.60;99.90;;;;;;5073757;28;20011;-56
2023/02/11 09:25:20;;;;;;;;;;;4.60;99.90;;;;;;5076802;28;20315;-51
2023/02/11 09:27:47;;;;;;;;;;;4.70;99.90;;;;;;5076864;28;20015;-54
2023/02/11 09:30:14;;;;;;;;;;;4.70;99.90;;;;;;5076642;28;20054;-55
2023/02/11 09:32:41;;;;;;;;;;;4.70;99.90;;;;;;5076382;28;19924;-55
2023/02/11 09:35:08;;;;;;;;;;;4.80;99.90;;;;;;5075478;28;19920;-54
2023/02/11 09:37:35;;;;;;;;;;;5.10;99.90;;;;;;5076220;28;19926;-56
2023/02/11 09:40:03;;;;;;;;;;;5.10;99.90;;;;;;5075958;28;19974;-55
2023/02/11 09:42:39;;;;;;;;;;;5.00;99.90;;;;;;5067569;28;19928;-53
2023/02/11 09:45:14;;;;;;;;;;;5.00;99.90;;;;;;5074048;28;20050;-55
2023/02/11 09:47:45;;;;;;;;;;;5.00;99.90;;;;;;5062082;28;19924;-52
2023/02/11 09:50:13;;;;;;;;;;;5.10;99.90;;;;;;5074710;28;19979;-55
2023/02/11 09:52:45;;;;;;;;;;;5.20;99.90;;;;;;5073694;28;19943;-55
2023/02/11 09:55:18;;;;;;;;;;;5.40;99.90;;;;;;5076209;28;20236;-53
2023/02/11 09:57:45;;;;;;;;;;;5.40;99.90;;;;;;5061286;28;19927;-53
2023/02/11 10:00:20;;;;;;;;;;;5.40;99.90;;;;;;5076120;28;19943;-55
2023/02/11 10:03:00;;;;;;;;;;;5.50;99.90;;;;;;5075329;28;20316;-55
2023/02/11 10:05:33;;;;;;;;;;;5.60;99.90;;;;;;5076930;28;19926;-55
2023/02/11 10:08:08;;;;;;;;;;;5.60;99.90;;;;;;5072971;28;20327;-54
2023/02/11 10:10:41;;;;;;;;;;;5.70;99.90;;;;;;5069464;28;20297;-56
2023/02/11 10:13:21;;;;;;;;;;;5.70;99.90;;;;;;5070728;28;19920;-57
2023/02/11 10:15:52;;;;;;;;;;;5.70;99.90;;;;;;5073237;28;20442;-55
2023/02/11 10:18:29;;;;;;;;;;;5.70;99.90;;;;;;5064942;28;20006;-56
2023/02/11 10:21:03;;;;;;;;;;;5.80;99.90;;;;;;5070783;28;20535;-53
2023/02/11 10:23:33;;;;;;;;;;;5.90;99.90;;;;;;5072994;28;19930;-55
2023/02/11 10:26:02;;;;;;;;;;;6.10;99.90;;;;;;5060218;28;20239;-55
2023/02/11 10:28:30;;;;;;;;;;;6.20;99.90;;;;;;5068394;28;19921;-55
2023/02/11 10:30:58;;;;;;;;;;;6.20;99.90;;;;;;5062346;28;19955;-55
2023/02/11 10:33:26;;;;;;;;;;;6.30;99.90;;;;;;5071351;28;20006;-56
2023/02/11 10:35:54;;;;;;;;;;;6.40;99.90;;;;;;5073743;28;19920;-54
2023/02/11 10:38:21;;;;;;;;;;;6.50;99.90;;;;;;5072810;28;19947;-56
2023/02/11 10:40:48;;;;;;;;;;;6.70;99.90;;;;;;5070014;28;19921;-53
2023/02/11 10:43:17;;;;;;;;;;;6.80;99.90;;;;;;5069293;28;21588;-55
2023/02/11 10:45:45;;;;;;;;;;;6.90;99.90;;;;;;5064809;28;19927;-55
2023/02/11 10:48:30;;;;;;;;;;;7.00;99.90;;;;;;5073552;28;19924;-55
2023/02/11 10:51:07;;;;;;;;;;;7.10;99.90;;;;;;5067289;28;19926;-57
2023/02/11 10:53:34;;;;;;;;;;;7.10;99.90;;;;;;5068023;28;19982;-55
2023/02/11 10:56:02;;;;;;;;;;;7.20;99.90;;;;;;5072786;28;19935;-56
2023/02/11 10:58:32;;;;;;;;;;;7.20;99.90;;;;;;5068488;28;19920;-55
2023/02/11 11:00:59;;;;;;;;;;;7.20;99.90;;;;;;5059548;28;19943;-56
2023/02/11 11:03:27;;;;;;;;;;;7.30;99.90;;;;;;5068732;28;19927;-54
2023/02/11 11:05:55;;;;;;;;;;;7.30;99.90;;;;;;5071566;28;19924;-55
2023/02/11 11:08:22;;;;;;;;;;;7.20;99.90;;;;;;5068883;28;19927;-53
2023/02/11 11:11:02;;;;;;;;;;;7.20;99.90;;;;;;5070249;28;19924;-54
2023/02/11 11:13:32;;;;;;;;;;;7.30;99.90;;;;;;5066930;28;19921;-53
2023/02/11 11:16:14;;;;;;;;;;;7.40;99.90;;;;;;5073254;28;20300;-55
2023/02/11 11:18:42;;;;;;;;;;;7.30;99.90;;;;;;5073604;28;20003;-56
2023/02/11 11:21:13;;;;;;;;;;;7.40;99.90;;;;;;5071266;28;19920;-55
2023/02/11 11:23:47;;;;;;;;;;;7.60;99.90;;;;;;5073993;28;20456;-53
2023/02/11 11:26:14;;;;;;;;;;;7.80;99.90;;;;;;5071609;28;19928;-54
2023/02/11 11:28:51;;;;;;;;;;;8.00;99.90;;;;;;5071759;28;19920;-55
2023/02/11 11:31:22;;;;;;;;;;;8.10;99.90;;;;;;5073422;28;19938;-55
2023/02/11 11:33:50;;;;;;;;;;;8.20;99.90;;;;;;5073704;28;20038;-55
2023/02/11 11:36:21;;;;;;;;;;;8.30;99.90;;;;;;5073436;28;20498;-55
2023/02/11 11:38:50;;;;;;;;;;;8.40;99.90;;;;;;5073410;28;20011;-55
2023/02/11 11:41:19;;;;;;;;;;;8.50;99.90;;;;;;5073441;28;19928;-55
2023/02/11 11:44:00;;;;;;;;;;;8.60;99.90;;;;;;5075835;28;20014;-55
2023/02/11 11:46:28;;;;;;;;;;;8.70;99.90;;;;;;5070994;28;19924;-57
2023/02/11 11:48:58;;;;;;;;;;;8.80;99.90;;;;;;5067464;28;19916;-55
2023/02/11 11:51:26;;;;;;;;;;;8.80;99.90;;;;;;5075572;28;19978;-55
2023/02/11 11:53:56;;;;;;;;;;;8.90;99.90;;;;;;5060567;28;19920;-55
2023/02/11 11:56:24;;;;;;;;;;;9.10;99.90;;;;;;5059192;28;19930;-55
2023/02/11 11:58:51;;;;;;;;;;;9.20;99.90;;;;;;5067758;28;19931;-55
2023/02/11 12:01:28;;;;;;;;;;;9.10;99.90;;;;;;5071402;28;20007;-55
2023/02/11 12:04:11;;;;;;;;;;;9.30;99.90;;;;;;5071928;28;19934;-54
2023/02/11 12:06:41;;;;;;;;;;;9.30;99.90;;;;;;5072279;28;20340;-56
2023/02/11 12:09:13;;;;;;;;;;;9.50;99.90;;;;;;5072782;28;19924;-49
2023/02/11 12:11:49;;;;;;;;;;;9.40;99.90;;;;;;5062994;28;19924;-50
2023/02/11 12:14:23;;;;;;;;;;;9.30;99.90;;;;;;5072825;28;19928;-48
2023/02/11 12:16:56;;;;;;;;;;;9.30;99.90;;;;;;5064162;28;20251;-50
2023/02/11 12:19:51;;;;;;;;;;;9.30;99.90;;;;;;5066565;28;19977;-54
2023/02/11 12:22:25;;;;;;;;;;;9.20;99.90;;;;;;5029953;28;19987;-53
2023/02/11 12:24:56;;;;;;;;;;;9.20;99.90;;;;;;5069861;28;19928;-54
2023/02/11 12:27:28;;;;;;;;;;;9.40;99.90;;;;;;5065528;28;20347;-53
2023/02/11 12:30:00;;;;;;;;;;;9.70;99.90;;;;;;5069199;28;19928;-48
2023/02/11 12:32:33;;;;;;;;;;;9.80;99.90;;;;;;5057566;28;19920;-53
2023/02/11 12:35:04;;;;;;;;;;;10.00;99.90;;;;;;5066867;28;19924;-54
2023/02/11 12:37:46;;;;;;;;;;;10.10;99.90;;;;;;5072217;28;19920;-52
2023/02/11 12:40:16;;;;;;;;;;;10.10;99.90;;;;;;5073602;28;19927;-54
2023/02/11 12:43:16;;;;;;;;;;;10.20;99.90;;;;;;5068875;28;19924;-55
2023/02/11 12:45:54;;;;;;;;;;;10.20;99.90;;;;;;5072774;28;20387;-51
2023/02/11 12:48:35;;;;;;;;;;;10.20;99.90;;;;;;5068336;28;19924;-55
2023/02/11 12:51:09;;;;;;;;;;;10.10;99.90;;;;;;5052697;28;19970;-54
2023/02/11 12:53:44;;;;;;;;;;;10.10;99.90;;;;;;5071789;28;20003;-54
2023/02/11 12:56:14;;;;;;;;;;;10.10;99.90;;;;;;5031747;28;20008;-54
2023/02/11 12:58:42;;;;;;;;;;;9.90;99.90;;;;;;5034410;28;20408;-55
2023/02/11 13:01:15;;;;;;;;;;;9.70;99.90;;;;;;5036732;28;19921;-52
2023/02/11 13:03:44;;;;;;;;;;;9.60;99.90;;;;;;5034710;28;19999;-52
2023/02/11 13:06:13;;;;;;;;;;;9.50;99.90;;;;;;5025006;28;20422;-53
2023/02/11 13:08:42;;;;;;;;;;;9.50;99.90;;;;;;5034497;28;19921;-56
2023/02/11 13:11:13;;;;;;;;;;;9.50;99.90;;;;;;5036040;28;19921;-52
2023/02/11 13:13:46;;;;;;;;;;;9.50;99.90;;;;;;5036310;28;19921;-54
2023/02/11 13:16:17;;;;;;;;;;;9.50;99.90;;;;;;5025714;28;19939;-50
2023/02/11 13:18:49;;;;;;;;;;;9.50;99.90;;;;;;5036582;28;19921;-54
2023/02/11 13:21:33;;;;;;;;;;;9.60;99.90;;;;;;5034827;28;20293;-55
2023/02/11 13:24:05;;;;;;;;;;;9.70;99.90;;;;;;5034323;28;19921;-56
2023/02/11 13:26:34;;;;;;;;;;;9.80;99.90;;;;;;5034291;28;20244;-57
2023/02/11 13:29:10;;;;;;;;;;;9.70;99.90;;;;;;5035898;28;19921;-56
2023/02/11 13:31:36;;;;;;;;;;;9.60;99.90;;;;;;5035801;28;20240;-57
2023/02/11 13:34:03;;;;;;;;;;;9.50;99.90;;;;;;5038308;28;19921;-55
2023/02/11 13:36:33;;;;;;;;;;;9.50;99.90;;;;;;5033204;28;19925;-54
2023/02/11 13:39:02;;;;;;;;;;;9.50;99.90;;;;;;5030193;28;19991;-51
2023/02/11 13:41:30;;;;;;;;;;;9.40;99.90;;;;;;5034891;28;19936;-56
2023/02/11 13:43:59;;;;;;;;;;;9.30;99.90;;;;;;5035903;28;19931;-52
2023/02/11 13:46:26;;;;;;;;;;;9.10;99.90;;;;;;5035536;28;20349;-52
2023/02/11 13:48:53;;;;;;;;;;;8.90;99.90;;;;;;5036712;28;19920;-54
2023/02/11 13:51:35;;;;;;;;;;;8.80;99.90;;;;;;5036085;28;19921;-54
2023/02/11 13:54:03;;;;;;;;;;;8.90;99.90;;;;;;5038711;28;20528;-53
2023/02/11 13:56:31;;;;;;;;;;;8.90;99.90;;;;;;5071942;28;19924;-55
2023/02/11 13:58:59;;;;;;;;;;;9.00;99.90;;;;;;5059820;28;19931;-50
2023/02/11 14:10:53;;;;;;;;;;;9.00;99.90;;;;;;5063795;28;20438;-55
2023/02/11 14:13:22;;;;;;;;;;;9.00;99.90;;;;;;5067786;28;19924;-55
2023/02/11 14:16:03;;;;;;;;;;;9.00;99.90;;;;;;5076272;28;19921;-55
2023/02/11 14:18:48;;;;;;;;;;;9.00;99.90;;;;;;5056895;28;19920;-55
2023/02/11 14:21:17;;;;;;;;;;;9.10;99.90;;;;;;5065369;28;19927;-54
2023/02/11 14:23:44;;;;;;;;;;;9.10;99.90;;;;;;5076881;28;20007;-55
2023/02/11 14:26:30;;;;;;;;;;;9.10;99.90;;;;;;5076570;28;20185;-56
2023/02/11 14:29:01;;;;;;;;;;;9.00;99.90;;;;;;5069969;28;19920;-52
2023/02/11 14:31:29;;;;;;;;;;;8.90;99.90;;;;;;5075637;28;19935;-55
2023/02/11 14:34:08;;;;;;;;;;;8.90;99.90;;;;;;5076527;28;20354;-53
2023/02/11 14:36:46;;;;;;;;;;;8.90;99.90;;;;;;5071868;28;19928;-55
2023/02/11 14:39:18;;;;;;;;;;;8.80;99.90;;;;;;5059990;28;19927;-56
2023/02/11 14:41:49;;;;;;;;;;;8.80;99.90;;;;;;5069804;28;19920;-54
2023/02/11 14:44:18;;;;;;;;;;;8.70;99.90;;;;;;5059837;28;19921;-53
2023/02/11 14:46:46;;;;;;;;;;;8.80;99.90;;;;;;5076576;28;20010;-54
2023/02/11 14:49:18;;;;;;;;;;;8.80;99.90;;;;;;5074123;28;19960;-57
2023/02/11 14:51:45;;;;;;;;;;;8.70;99.90;;;;;;5074976;28;19924;-56
2023/02/11 14:54:15;;;;;;;;;;;8.70;99.90;;;;;;5058988;28;20371;-56
2023/02/11 14:56:43;;;;;;;;;;;8.60;99.90;;;;;;5061455;28;20220;-56